Terminal Aerodrome Forecast
Issued by NWS Missoula, MT

Home | Current Version | Previous Version | Text Only | Print | Product List | Glossary On
Versions: 1 2 3 4 5 6 7 8 9 10 11 12 13 14 15 16 17 18 19 20 21
000
FTUS45 KMSO 211740
TAFBTM
TAF
KBTM 211740Z 2118/2218 VRB04KT P6SM BKN050 OVC090
     FM212100 32008KT P6SM OVC040
     FM220500 01011G18KT 6SM -RASN OVC035
     FM220700 34015G25KT 1SM -SN BKN010 OVC020=

USA.gov is the U.S. government's official web portal to all federal, state and local government web resources and services.